SAST,Max TemperatureF,Mean TemperatureF,Min TemperatureF,Max Dew PointF,MeanDew PointF,Min DewpointF,Max Humidity, Mean Humidity, Min Humidity, Max Sea Level PressureIn, Mean Sea Level PressureIn, Min Sea Level PressureIn, Max VisibilityMiles, Mean VisibilityMiles, Min VisibilityMiles, Max Wind SpeedMPH, Mean Wind SpeedMPH, Max Gust SpeedMPH,PrecipitationIn, CloudCover, Events, WindDirDegrees
2013-10-1,68,59,50,54,46,36,82,60,33,30.07,30.03,29.98,6,6,6,12,5,,0.00,1,,142
2013-10-2,68,60,51,55,51,45,88,75,54,30.14,30.06,30.01,19,11,6,16,7,,0.00,4,,189
2013-10-3,68,62,55,56,52,48,88,71,50,30.13,30.09,30.06,19,9,6,17,9,,0.00,2,,181
2013-10-4,66,62,57,54,51,48,77,67,52,30.17,30.12,30.09,19,8,6,28,17,,0.00,1,,176
2013-10-5,58,56,53,54,47,43,88,70,51,30.34,30.20,30.09,19,8,6,26,20,,0.00,6,,179
2013-10-6,64,56,47,47,43,39,76,58,42,30.40,30.34,30.30,19,8,6,28,16,,0.00,2,,163
2013-10-7,72,62,51,50,46,42,67,56,33,30.30,30.20,30.12,19,10,6,23,17,,0.00,1,,170
2013-10-8,81,63,45,57,51,41,88,64,31,30.12,30.05,30.01,19,11,6,20,10,,0.00,3,,184
2013-10-9,68,63,57,57,55,53,88,76,55,30.06,30.03,29.98,16,9,6,18,13,,0.00,5,,197
2013-10-10,75,64,52,59,54,50,94,77,43,30.01,29.97,29.95,19,4,0,15,4,,0.00,3,Fog,148
2013-10-11,66,58,50,55,52,45,94,76,52,30.04,29.99,29.95,19,7,3,29,10,,0.01,5,Rain,331
2013-10-12,63,58,53,54,47,39,82,65,45,30.30,30.14,30.01,19,8,5,23,16,,0.12,6,Rain,235
2013-10-13,61,54,48,45,40,33,72,53,31,30.34,30.29,30.24,16,7,6,14,7,,0.00,5,,190
2013-10-14,70,60,50,52,47,41,82,60,34,30.27,30.16,30.04,19,11,6,17,9,,0.00,1,,192
2013-10-15,72,60,49,55,49,41,82,64,35,30.19,30.05,29.98,19,11,6,17,6,,0.00,4,,327
2013-10-16,64,58,53,52,44,39,82,56,35,30.32,30.26,30.18,16,7,6,17,9,,0.00,4,,192
2013-10-17,63,56,49,45,42,39,67,55,39,30.32,30.28,30.24,19,7,6,23,14,,0.00,3,,164
2013-10-18,70,61,52,53,47,37,67,56,34,30.27,30.19,30.12,6,6,6,29,18,36,0.00,1,,157
2013-10-19,80,66,53,54,49,45,72,53,19,30.09,29.99,29.92,16,7,6,23,10,,0.00,1,,160
2013-10-20,69,64,58,56,53,50,82,67,51,30.10,29.99,29.92,19,8,6,33,25,34,0.04,2,Rain,165
2013-10-21,68,62,56,52,49,45,82,63,37,30.22,30.15,30.09,16,7,4,28,20,33,0.00,3,Rain,163
2013-10-22,66,60,54,52,48,43,77,61,45,30.21,30.17,30.12,19,8,6,15,11,,0.00,3,,181
2013-10-23,75,66,57,57,54,52,82,65,44,30.18,30.09,30.04,19,8,6,22,15,,0.00,2,,170
2013-10-24,82,72,62,61,57,54,78,62,40,30.01,29.91,29.80,16,13,6,18,9,,0.00,4,,217
2013-10-25,70,63,56,63,57,52,88,78,64,30.04,29.93,29.86,16,7,4,16,8,,0.03,4,Rain,310
2013-10-26,76,68,59,63,61,57,94,76,52,30.04,30.01,29.98,19,9,6,21,11,,0.00,2,,190
2013-10-27,84,71,58,63,60,55,94,67,36,30.01,29.98,29.95,19,10,4,13,5,,0.00,1,,201
2013-10-28,72,66,59,59,58,57,94,78,63,30.05,30.01,29.95,19,7,0,18,7,,0.00,4,Fog,312
2013-10-29,69,64,59,59,56,52,94,75,46,29.98,29.91,29.86,12,6,1,21,12,,0.02,6,Rain,320
2013-10-30,67,62,56,59,54,50,94,76,53,29.86,29.82,29.77,16,7,4,22,13,,0.16,6,Rain,316
2013-10-31,63,59,55,59,54,50,94,83,67,29.98,29.87,29.80,12,5,2,18,12,,0.16,6,Rain,332